Time;durP1;ratioP1;P1;durP2;ratioP2;P2;SDS_P1;SDS_P2;PMS_P1;PMS_P2;Temp;Humidity;BMP_temperature;BMP_pressure;BME280_temperature;BME280_humidity;BME280_pressure;Samples;Min_cycle;Max_cycle;Signal;HPM_P1;HPM_P2
2023/08/21 00:00:25;;;;;;;8.40;3.88;;;15.20;99.90;;;-144.05;88.30;56940.16;6161893;23;20048;-83
2023/08/21 00:02:51;;;;;;;10.88;4.03;;;;;;;-144.05;88.34;56940.16;6189913;23;20005;-85
2023/08/21 00:05:17;;;;;;;9.70;4.50;;;;;;;-144.05;88.61;56910.44;6189508;23;20009;-86
2023/08/21 00:07:44;;;;;;;9.80;4.78;;;15.00;99.90;;;-144.05;88.53;56931.66;6189180;23;20020;-84
2023/08/21 00:10:12;;;;;;;10.63;4.10;;;18.50;99.90;;;-144.05;88.41;56942.28;6189913;23;20009;-87
2023/08/21 00:12:38;;;;;;;15.68;4.70;;;15.00;99.90;;;-144.05;88.14;56927.41;6162742;23;20027;-87
2023/08/21 00:15:05;;;;;;;10.35;4.20;;;18.80;99.90;;;-144.05;87.99;56933.78;6189998;23;20316;-87
2023/08/21 00:17:31;;;;;;;9.30;4.28;;;18.50;99.90;;;-144.05;88.07;56967.78;6164816;23;20008;-86
2023/08/21 00:19:57;;;;;;;10.32;4.00;;;17.10;99.90;;;-144.05;88.12;56929.53;6194439;23;20005;-86
2023/08/21 00:22:23;;;;;;;10.23;3.75;;;;;;;-144.05;88.17;56952.91;6177100;23;20032;-86
2023/08/21 00:24:49;;;;;;;12.48;3.72;;;;;;;-144.05;88.30;56925.28;6188889;23;20009;-83
2023/08/21 00:27:15;;;;;;;9.88;4.28;;;18.20;99.90;;;-144.05;88.25;56938.03;6187129;23;20005;-86
2023/08/21 00:29:41;;;;;;;8.98;3.25;;;18.40;99.90;;;-144.05;88.23;56927.41;6159556;23;20020;-86
2023/08/21 00:32:07;;;;;;;8.50;3.78;;;14.90;99.90;;;-144.05;88.39;56946.53;6159376;23;20092;-87
2023/08/21 00:34:33;;;;;;;5.85;3.33;;;18.00;99.90;;;-144.05;88.19;56933.78;6185851;23;20005;-85
2023/08/21 00:36:59;;;;;;;8.85;4.07;;;18.20;99.90;;;-144.05;88.05;56961.41;6185650;23;20020;-83
2023/08/21 00:39:25;;;;;;;7.38;3.70;;;;;;;-144.05;87.89;56950.78;6187275;23;20442;-83
2023/08/21 00:41:51;;;;;;;8.88;3.40;;;;;;;-144.05;88.01;56946.53;6189457;23;20009;-85
2023/08/21 00:44:17;;;;;;;4.88;3.30;;;;;;;-144.05;87.89;56916.81;6189135;23;20013;-87
2023/08/21 00:46:44;;;;;;;6.70;3.35;;;18.20;99.90;;;-144.05;87.97;56942.28;6189255;23;20423;-88
2023/08/21 00:49:11;;;;;;;8.13;2.97;;;17.60;99.90;;;-144.05;88.10;56946.53;6189031;23;20005;-87
2023/08/21 00:51:37;;;;;;;8.55;3.38;;;14.90;99.90;;;-144.05;88.18;56910.44;6162411;23;20096;-84
2023/08/21 00:54:03;;;;;;;10.05;3.85;;;14.80;99.90;;;-144.05;87.91;56944.41;6189256;23;20001;-82
2023/08/21 00:56:30;;;;;;;8.55;3.30;;;16.80;99.90;;;-144.05;88.00;56931.66;6159489;23;20339;-85
2023/08/21 00:58:57;;;;;;;8.98;3.67;;;14.60;99.90;;;-144.05;87.87;56974.16;6161830;23;20480;-84
2023/08/21 01:01:27;;;;;;;7.57;3.95;;;14.50;99.90;;;-144.05;87.82;56942.28;6189668;23;20005;-84
2023/08/21 01:03:56;;;;;;;9.70;4.28;;;14.70;99.90;;;-144.05;87.75;56948.66;6190463;23;19997;-84
2023/08/21 01:06:22;;;;;;;9.80;4.30;;;14.90;99.90;;;-144.05;88.07;56925.28;6161549;23;20005;-85
2023/08/21 01:09:08;;;;;;;6.55;3.20;;;18.40;99.90;;;-144.05;87.99;56935.91;6188478;23;20009;-88
2023/08/21 01:12:12;;;;;;;5.85;3.20;;;14.80;99.90;;;-144.05;87.96;56946.53;6189334;23;20005;-84
2023/08/21 01:14:59;;;;;;;8.75;3.92;;;14.80;99.90;;;-144.05;87.82;56904.06;6163331;23;20113;-82
2023/08/21 01:17:29;;;;;;;9.95;4.47;;;18.20;99.90;;;-144.05;87.79;56938.03;6189655;23;20005;-87
2023/08/21 01:19:56;;;;;;;9.02;3.83;;;16.70;99.90;;;-144.05;87.71;56940.16;6162513;23;20005;-85
2023/08/21 01:22:46;;;;;;;9.65;4.70;;;17.90;99.90;;;-144.05;87.77;56946.53;6163989;23;20024;-85
2023/08/21 01:25:13;;;;;;;7.00;3.55;;;18.10;99.90;;;-144.05;87.65;56901.94;6164837;23;20001;-86
2023/08/21 01:27:47;;;;;;;8.43;3.85;;;17.80;99.90;;;-144.05;87.92;56935.91;6163792;23;20005;-86
2023/08/21 01:30:14;;;;;;;6.78;3.90;;;17.30;99.90;;;-144.05;87.80;56940.16;6164657;23;20016;-85
2023/08/21 01:33:00;;;;;;;6.78;3.83;;;14.50;99.90;;;-144.05;87.91;56940.16;6192223;23;20088;-85
2023/08/21 01:35:30;;;;;;;7.85;3.42;;;18.00;99.90;;;-144.05;87.99;56950.78;6165574;23;20443;-83
2023/08/21 01:37:57;;;;;;;10.63;4.78;;;17.20;99.90;;;-144.05;87.96;56948.66;6192497;23;20166;-84
2023/08/21 01:40:25;;;;;;;12.27;4.88;;;17.90;99.90;;;-144.05;88.21;56952.91;6165008;23;20015;-87
2023/08/21 01:42:53;;;;;;;8.98;4.40;;;16.30;99.90;;;-144.05;88.23;56957.16;6163459;23;20342;-84
2023/08/21 01:45:21;;;;;;;11.32;4.15;;;17.80;99.90;;;-144.05;88.23;56952.91;6162316;23;20004;-86
2023/08/21 01:47:47;;;;;;;8.77;4.93;;;;;;;-144.05;88.20;56935.91;6162720;23;20013;-85
2023/08/21 01:50:13;;;;;;;11.70;4.72;;;14.10;99.90;;;-144.05;88.38;56950.78;6162600;23;20364;-86
2023/08/21 01:52:39;;;;;;;11.40;4.85;;;17.30;99.90;;;-144.05;88.40;56935.91;6190303;23;20028;-85
2023/08/21 01:55:07;;;;;;;10.82;5.10;;;17.50;99.90;;;-144.05;88.45;56925.28;6164527;23;20009;-82
2023/08/21 01:57:34;;;;;;;11.40;4.13;;;;;;;-144.05;88.50;56944.41;6191054;23;20431;-82
2023/08/21 02:00:00;;;;;;;10.93;4.40;;;;;;;-144.05;88.65;56931.66;6163779;23;20092;-88
2023/08/21 02:02:26;;;;;;;10.60;4.10;;;14.30;99.90;;;-144.05;88.59;56942.28;6190037;23;20009;-85
2023/08/21 02:04:52;;;;;;;8.02;4.68;;;;;;;-144.05;88.61;56944.41;6191003;23;20008;-86
2023/08/21 02:07:18;;;;;;;8.45;4.00;;;17.80;99.90;;;-144.05;88.95;56940.16;6165648;23;20016;-85
2023/08/21 02:09:44;;;;;;;10.43;4.22;;;17.60;99.90;;;-144.05;88.93;56938.03;6164188;23;20284;-85
2023/08/21 02:12:09;;;;;;;8.70;3.67;;;14.30;99.90;;;-144.05;88.73;56933.78;6190823;23;20001;-86
2023/08/21 02:14:35;;;;;;;6.70;3.80;;;16.20;99.90;;;-144.05;88.75;56935.91;6164811;23;20001;-85
2023/08/21 02:17:02;;;;;;;8.68;3.72;;;;;;;-144.05;88.58;56899.81;6165338;23;20005;-84
2023/08/21 02:19:28;;;;;;;6.40;3.70;;;14.10;99.90;;;-144.05;88.63;56942.28;6166708;23;20067;-86
2023/08/21 02:21:54;;;;;;;7.60;4.05;;;;;;;-144.05;88.69;56955.03;6179224;23;20004;-83
2023/08/21 02:24:20;;;;;;;6.82;3.72;;;;;;;-144.05;88.50;56955.03;6165075;23;20009;-85
2023/08/21 02:26:46;;;;;;;8.00;3.70;;;12.70;99.90;;;-144.05;88.52;56942.28;6165752;23;20016;-85
2023/08/21 02:29:12;;;;;;;4.07;3.20;;;17.60;99.90;;;-144.05;88.39;56942.28;6177443;23;20016;-85
2023/08/21 02:31:38;;;;;;;8.02;3.47;;;16.20;99.90;;;-144.05;88.63;56961.41;6172963;23;20013;-85
2023/08/21 02:34:04;;;;;;;5.70;3.15;;;17.90;99.90;;;-144.05;88.62;56942.28;6176873;23;20008;-85
2023/08/21 02:36:30;;;;;;;6.13;3.50;;;16.10;99.90;;;-144.05;88.84;56952.91;6178979;23;20383;-85
2023/08/21 02:38:56;;;;;;;6.22;2.88;;;16.70;99.90;;;-144.05;88.67;56925.28;6186256;23;20009;-84
2023/08/21 02:41:22;;;;;;;7.90;3.50;;;14.40;99.90;;;-144.05;88.70;56946.53;6161080;23;20005;-84
2023/08/21 02:43:48;;;;;;;9.00;3.40;;;17.50;99.90;;;-144.05;88.33;56938.03;6160590;23;20016;-84
2023/08/21 02:46:14;;;;;;;7.32;3.60;;;16.10;99.90;;;-144.05;88.41;56933.78;6162264;23;20040;-85
2023/08/21 02:48:40;;;;;;;8.30;3.20;;;14.20;99.90;;;-144.05;88.75;56940.16;6190045;23;20005;-83
2023/08/21 02:51:06;;;;;;;6.50;3.53;;;13.90;99.90;;;-144.05;88.83;56923.19;6172948;23;20017;-87
2023/08/21 02:53:31;;;;;;;8.68;3.65;;;17.50;99.90;;;-144.05;89.10;56933.78;6173099;23;20339;-83
2023/08/21 02:55:57;;;;;;;4.43;3.58;;;16.80;99.90;;;-144.05;89.10;56959.28;6171966;23;20005;-85
2023/08/21 02:58:23;;;;;;;9.80;2.90;;;17.00;99.90;;;-144.05;89.09;56944.41;6168151;23;20031;-87
2023/08/21 03:00:50;;;;;;;4.78;3.08;;;;;;;-144.05;89.24;56946.53;6195055;23;19997;-87
2023/08/21 03:03:16;;;;;;;7.43;3.00;;;;;;;-144.05;89.31;56950.78;6166279;23;20320;-85
2023/08/21 03:05:42;;;;;;;6.03;3.35;;;15.80;99.90;;;-144.05;89.41;56944.41;6166224;23;20013;-85
2023/08/21 03:08:09;;;;;;;6.78;2.63;;;;;;;-144.05;89.42;56918.94;6192330;23;20005;-84
2023/08/21 03:10:36;;;;;;;8.55;3.63;;;;;;;-144.05;89.61;56959.28;6191563;23;20005;-85
2023/08/21 03:13:03;;;;;;;7.45;3.47;;;14.00;99.90;;;-144.05;89.64;56933.78;6189923;23;20051;-87
2023/08/21 03:15:29;;;;;;;7.43;3.35;;;;;;;-144.05;89.66;56950.78;6190863;23;20036;-84
2023/08/21 03:17:55;;;;;;;7.30;3.67;;;17.20;99.90;;;-144.05;89.56;56961.41;6163493;23;20009;-86
2023/08/21 03:20:21;;;;;;;6.80;3.03;;;17.40;99.90;;;-144.05;89.75;56944.41;6161246;23;20482;-85
2023/08/21 03:22:47;;;;;;;6.22;2.83;;;;;;;-144.05;89.72;56925.28;6188943;23;20085;-87
2023/08/21 03:25:13;;;;;;;8.45;3.40;;;17.50;99.90;;;-144.05;89.57;56938.03;6162302;23;20009;-84
2023/08/21 03:27:39;;;;;;;6.78;3.75;;;13.80;99.90;;;-144.05;89.64;56952.91;6188300;23;20052;-83
2023/08/21 03:30:07;;;;;;;11.85;4.55;;;14.10;99.90;;;-144.05;89.46;56944.41;6189621;23;20036;-86
2023/08/21 03:32:33;;;;;;;9.93;4.53;;;14.00;99.90;;;-144.05;89.86;56929.53;6161736;23;20016;-84
2023/08/21 03:34:59;;;;;;;8.57;3.88;;;17.30;99.90;;;-144.05;89.58;56972.03;6164034;23;20013;-85
2023/08/21 03:37:25;;;;;;;6.63;3.28;;;17.50;99.90;;;-144.05;89.54;56925.28;6164535;23;20351;-87
2023/08/21 03:39:51;;;;;;;4.40;3.13;;;;;;;-144.05;89.68;56923.19;6162602;23;20013;-86
2023/08/21 03:42:17;;;;;;;6.75;3.13;;;15.80;99.90;;;-144.05;89.87;56921.06;6165706;23;20009;-84
2023/08/21 03:44:43;;;;;;;8.77;4.05;;;;;;;-144.05;89.66;56931.66;6191381;23;20027;-86
2023/08/21 03:47:09;;;;;;;12.93;3.88;;;17.40;99.90;;;-144.05;89.51;56942.28;6165142;23;20004;-85
2023/08/21 03:49:36;;;;;;;9.98;4.75;;;17.30;99.90;;;-144.05;89.23;56931.66;6192720;23;20028;-87
2023/08/21 03:52:02;;;;;;;6.93;3.90;;;16.50;99.90;;;-144.05;89.51;56955.03;6166078;23;20328;-84
2023/08/21 03:54:29;;;;;;;8.70;3.67;;;;;;;-144.05;89.49;56946.53;6187207;23;20092;-80
2023/08/21 03:56:55;;;;;;;5.38;3.75;;;;;;;-144.05;89.70;56918.94;6162341;23;20044;-82
2023/08/21 03:59:23;;;;;;;8.18;3.90;;;;;;;-144.05;89.74;56916.81;6161234;23;20028;-83
2023/08/21 04:01:49;;;;;;;6.13;3.47;;;;;;;-144.05;89.89;56931.66;6160844;23;20012;-84
2023/08/21 04:04:15;;;;;;;10.02;3.85;;;17.30;99.90;;;-144.05;89.89;56948.66;6189965;23;20032;-83
2023/08/21 04:06:41;;;;;;;10.23;3.80;;;17.00;99.90;;;-144.05;90.01;56942.28;6187786;23;20419;-83
2023/08/21 04:09:07;;;;;;;7.25;3.70;;;13.60;99.90;;;-144.05;90.22;56908.31;6159900;23;20013;-84
2023/08/21 04:11:33;;;;;;;9.73;3.60;;;17.10;99.90;;;-144.05;90.19;56927.41;6161447;23;20009;-83
2023/08/21 04:13:59;;;;;;;7.18;3.67;;;13.60;99.90;;;-144.05;90.16;56940.16;6161845;23;20423;-83
2023/08/21 04:16:25;;;;;;;6.47;3.35;;;16.60;99.90;;;-144.05;90.39;56929.53;6164809;23;20005;-88
2023/08/21 04:18:50;;;;;;;6.38;3.75;;;16.90;99.90;;;-144.05;90.24;56923.19;6168228;23;20070;-85
2023/08/21 04:21:17;;;;;;;7.82;3.70;;;;;;;-144.05;90.34;56916.81;6203889;23;20017;-84
2023/08/21 04:23:46;;;;;;;5.15;3.15;;;15.60;99.90;;;-144.05;90.25;56955.03;6162408;23;20025;-86
2023/08/21 04:26:12;;;;;;;6.35;3.60;;;;;;;-144.05;90.25;56940.16;6161476;23;20041;-86
2023/08/21 04:28:38;;;;;;;9.10;3.40;;;15.60;99.90;;;-144.05;90.26;56935.91;6161437;23;20009;-87
2023/08/21 04:31:07;;;;;;;6.38;3.35;;;17.10;99.90;;;-144.05;90.34;56944.41;6161419;23;20009;-86
2023/08/21 04:33:34;;;;;;;5.30;3.63;;;13.40;99.90;;;-144.05;90.37;56938.03;6188363;23;20085;-86
2023/08/21 04:36:01;;;;;;;6.25;3.30;;;15.60;99.90;;;-144.05;90.37;56942.28;6162695;23;20005;-85
2023/08/21 04:38:27;;;;;;;6.22;3.83;;;16.50;99.90;;;-144.05;90.11;56952.91;6162602;23;20013;-87
2023/08/21 04:40:53;;;;;;;10.65;4.43;;;;;;;-144.05;90.37;56938.03;6189601;23;20100;-85
2023/08/21 04:43:19;;;;;;;8.45;3.47;;;;;;;-144.05;90.54;56938.03;6162309;23;20028;-86
2023/08/21 04:45:52;;;;;;;6.80;4.13;;;17.10;99.90;;;-144.05;90.54;56946.53;6189300;23;20009;-86
2023/08/21 04:48:19;;;;;;;5.32;3.60;;;17.00;99.90;;;-144.05;90.43;56946.53;6163062;23;20072;-86
2023/08/21 04:50:46;;;;;;;6.82;3.97;;;17.20;99.90;;;-144.05;90.40;56946.53;6189131;23;20008;-86
2023/08/21 04:53:12;;;;;;;9.95;3.67;;;17.10;99.90;;;-144.05;90.67;56940.16;6190442;23;20331;-83
2023/08/21 04:55:40;;;;;;;6.97;4.20;;;15.90;99.90;;;-144.05;90.37;56933.78;6162251;23;20412;-83
2023/08/21 04:58:07;;;;;;;15.43;4.60;;;17.10;99.90;;;-144.05;90.72;56929.53;6188581;23;20009;-83
2023/08/21 05:00:34;;;;;;;11.95;4.68;;;17.50;99.90;;;-144.05;90.44;56938.03;6161468;23;20005;-86
2023/08/21 05:02:59;;;;;;;8.13;3.70;;;17.10;99.90;;;-144.05;89.96;56933.78;6187513;23;20001;-85
2023/08/21 05:05:26;;;;;;;8.25;4.40;;;;;;;-144.05;89.61;56940.16;6187632;23;20055;-87
2023/08/21 05:07:53;;;;;;;7.68;4.03;;;16.40;99.90;;;-144.05;89.56;56955.03;6188718;23;20025;-86
2023/08/21 05:10:20;;;;;;;6.57;4.00;;;;;;;-144.05;89.39;56942.28;6161130;23;20012;-85
2023/08/21 05:12:46;;;;;;;7.93;3.67;;;17.50;99.90;;;-144.05;89.44;56950.78;6161297;23;20009;-85
2023/08/21 05:15:14;;;;;;;7.57;3.70;;;18.30;99.90;;;-144.05;89.41;56959.28;6162383;23;20009;-82
2023/08/21 05:17:40;;;;;;;6.30;3.35;;;14.50;99.90;;;-144.05;89.49;56961.41;6188889;23;20008;-87
2023/08/21 05:20:06;;;;;;;6.00;4.43;;;14.40;99.90;;;-144.05;89.44;56957.16;6161945;23;20466;-85
2023/08/21 05:22:32;;;;;;;8.63;4.47;;;14.60;99.90;;;-144.05;89.56;56946.53;6188158;23;20005;-84
2023/08/21 05:24:58;;;;;;;7.07;3.72;;;17.40;99.90;;;-144.05;89.37;56946.53;6188945;23;20005;-85
2023/08/21 05:27:24;;;;;;;4.32;3.30;;;17.60;99.90;;;-144.05;89.53;56929.53;6163922;23;20427;-86
2023/08/21 05:29:51;;;;;;;9.38;4.72;;;18.40;99.90;;;-144.05;89.19;56944.41;6191133;23;20013;-86
2023/08/21 05:32:17;;;;;;;6.63;4.60;;;16.80;99.90;;;-144.05;89.23;56952.91;6166125;23;20052;-85
2023/08/21 05:34:43;;;;;;;8.60;4.28;;;15.10;99.90;;;-144.05;89.23;56946.53;6169755;23;20071;-83
2023/08/21 05:37:09;;;;;;;8.75;4.55;;;18.40;99.90;;;-144.05;89.07;56955.03;6184765;23;20025;-81
2023/08/21 05:39:34;;;;;;;11.20;5.32;;;18.70;99.90;;;-144.05;87.53;56959.28;6182011;23;20278;-86
2023/08/21 05:42:01;;;;;;;11.88;4.47;;;;;;;-144.05;87.40;56965.66;6164745;23;20312;-86
2023/08/21 05:44:26;;;;;;;8.88;3.75;;;17.40;99.90;;;-144.05;85.88;56974.16;6189370;23;20012;-86
2023/08/21 05:46:54;;;;;;;7.63;3.42;;;19.10;99.90;;;-144.05;86.21;56957.16;6164117;23;20431;-86
2023/08/21 05:49:20;;;;;;;6.30;3.38;;;19.60;99.90;;;-144.05;86.35;56957.16;6166264;23;20009;-86
2023/08/21 05:51:46;;;;;;;6.85;3.08;;;;;;;-144.05;85.35;56961.41;6165073;23;20063;-86
2023/08/21 05:54:12;;;;;;;5.10;2.97;;;18.20;99.90;;;-144.05;84.58;56959.28;6166220;23;20009;-84
2023/08/21 05:56:38;;;;;;;6.55;2.97;;;;;;;-144.05;83.38;56963.53;6166700;23;20009;-85
2023/08/21 05:59:04;;;;;;;7.60;2.78;;;19.90;99.90;;;-144.05;81.19;56959.28;6165789;23;20076;-87
2023/08/21 06:01:30;;;;;;;9.77;3.08;;;;;;;-144.05;78.96;56991.13;6167297;23;20407;-86
2023/08/21 06:03:58;;;;;;;9.13;3.15;;;17.20;99.90;;;-144.05;73.18;57008.13;6168000;23;20035;-84
2023/08/21 06:06:23;;;;;;;5.45;2.25;;;21.00;99.90;;;-144.05;68.39;56984.78;6166771;23;20038;-88
2023/08/21 06:08:49;;;;;;;5.25;2.30;;;19.40;99.90;;;-144.05;67.68;57001.75;6190004;23;20136;-89
2023/08/21 06:11:15;;;;;;;6.60;2.30;;;;;;;-144.05;67.38;56989.00;6191062;23;20074;-86
2023/08/21 06:13:41;;;;;;;7.25;2.38;;;18.60;99.90;;;-144.05;66.91;56989.00;6165158;23;20048;-87
2023/08/21 06:16:07;;;;;;;6.70;1.98;;;22.10;99.90;;;-144.05;65.81;57018.75;6168196;23;20009;-86
2023/08/21 06:18:33;;;;;;;7.93;2.22;;;22.10;99.90;;;-144.05;64.52;56989.00;6209274;23;19989;-82
2023/08/21 06:20:59;;;;;;;5.43;2.30;;;22.40;99.90;;;-144.05;61.44;57003.88;6172151;23;20451;-84
2023/08/21 06:23:25;;;;;;;6.47;2.30;;;;;;;-144.05;61.46;57040.00;6189781;23;20012;-84
2023/08/21 06:25:51;;;;;;;7.72;2.70;;;22.40;99.90;;;-144.05;61.35;57025.13;6163593;23;20013;-85
2023/08/21 06:28:17;;;;;;;5.18;2.10;;;22.70;99.90;;;-144.05;60.00;57018.75;6163763;23;20027;-85
2023/08/21 06:30:44;;;;;;;5.82;2.00;;;19.80;99.90;;;-144.05;59.41;57012.38;6163863;23;20386;-83
2023/08/21 06:33:10;;;;;;;6.82;1.83;;;21.60;99.90;;;-144.05;59.38;57023.00;6163574;23;20378;-86
2023/08/21 06:35:38;;;;;;;5.28;2.20;;;19.50;99.90;;;-144.05;60.58;57044.25;6163663;23;20009;-85
2023/08/21 06:38:05;;;;;;;3.97;2.00;;;23.10;99.90;;;-144.05;60.86;57001.75;6163359;23;20008;-87
2023/08/21 06:40:31;;;;;;;5.43;1.67;;;19.40;99.90;;;-144.05;60.28;57014.50;6189698;23;20284;-84
2023/08/21 06:42:58;;;;;;;5.55;2.15;;;23.20;99.90;;;-144.05;58.02;57025.13;6190319;23;20013;-86
2023/08/21 06:45:23;;;;;;;6.05;1.67;;;23.80;99.90;;;-144.05;57.90;57033.63;6164497;23;20092;-86
2023/08/21 06:47:50;;;;;;;4.22;1.70;;;20.40;99.90;;;-144.05;56.44;57023.00;6190532;23;20005;-84
2023/08/21 06:50:16;;;;;;;6.20;2.10;;;20.60;99.90;;;-144.05;55.73;57020.88;6162905;23;20016;-85
2023/08/21 06:52:43;;;;;;;8.43;2.10;;;;;;;-144.05;55.01;57029.38;6163277;23;20020;-86
2023/08/21 06:55:09;;;;;;;8.35;2.28;;;;;;;-144.05;55.57;57035.75;6190484;23;20072;-86
2023/08/21 06:57:37;;;;;;;6.43;1.77;;;23.20;99.90;;;-144.05;56.44;57012.38;6166496;23;20317;-84
2023/08/21 07:00:06;;;;;;;4.93;2.00;;;19.60;99.90;;;-144.05;57.81;56982.66;6192913;23;20052;-86
2023/08/21 07:02:32;;;;;;;4.97;1.83;;;19.80;99.90;;;-144.05;58.41;57048.50;6165686;23;20017;-83
2023/08/21 07:04:58;;;;;;;8.10;2.60;;;19.70;99.90;;;-144.05;59.25;57035.75;6165625;23;20491;-88
2023/08/21 07:07:24;;;;;;;4.38;2.03;;;20.00;99.90;;;-144.05;59.11;57006.00;6165613;23;20001;-86
2023/08/21 07:09:51;;;;;;;6.07;2.03;;;;;;;-144.05;57.70;57020.88;6164511;23;20059;-84
2023/08/21 07:12:17;;;;;;;6.30;2.08;;;23.50;99.90;;;-144.05;55.70;57042.13;6166085;23;20013;-86
2023/08/21 07:14:43;;;;;;;6.10;2.33;;;;;;;-144.05;55.52;57025.13;6192066;23;20012;-85
2023/08/21 07:17:09;;;;;;;3.83;1.63;;;20.50;99.90;;;-144.05;56.08;57042.13;6193274;23;20036;-83
2023/08/21 07:19:34;;;;;;;7.60;2.35;;;24.00;99.90;;;-144.05;56.15;57020.88;6192255;23;20001;-83
2023/08/21 07:22:01;;;;;;;7.70;2.53;;;;;;;-144.05;55.71;57046.38;6193243;23;19993;-86
2023/08/21 07:24:26;;;;;;;6.72;2.72;;;22.30;99.90;;;-144.05;56.74;57029.38;6164815;23;20439;-84
2023/08/21 07:26:53;;;;;;;8.75;2.85;;;;;;;-144.05;56.59;57035.75;6190365;23;20009;-86
2023/08/21 07:29:18;;;;;;;8.00;2.72;;;24.00;99.90;;;-144.05;55.57;57054.88;6163833;23;20013;-87
2023/08/21 07:31:44;;;;;;;4.65;1.83;;;25.10;99.90;;;-144.05;54.63;57050.63;6189378;23;20128;-85
2023/08/21 07:34:10;;;;;;;11.88;2.83;;;23.40;99.90;;;-144.05;53.14;57063.34;6163731;23;20008;-87
2023/08/21 07:36:36;;;;;;;4.68;1.63;;;;;;;-144.05;52.76;57071.84;6163176;23;20005;-86
2023/08/21 07:39:03;;;;;;;5.05;2.47;;;;;;;-144.05;51.38;57073.97;6189995;23;20001;-85
2023/08/21 07:41:30;;;;;;;5.78;2.22;;;;;;;-144.05;52.66;57046.38;6189814;23;20015;-83
2023/08/21 07:43:55;;;;;;;4.65;2.10;;;25.20;99.90;;;-144.05;53.69;57069.72;6190020;23;20036;-85
2023/08/21 07:46:22;;;;;;;7.88;2.47;;;;;;;-144.05;53.49;57073.97;6191125;23;20016;-85
2023/08/21 07:48:49;;;;;;;4.72;1.98;;;;;;;-144.05;53.04;57093.09;6165062;23;20013;-84
2023/08/21 07:51:15;;;;;;;6.38;2.28;;;21.90;99.90;;;-144.05;52.41;57080.34;6164682;23;20021;-84
2023/08/21 07:53:41;;;;;;;4.60;2.08;;;23.80;99.90;;;-144.05;52.65;57063.34;6190456;23;20442;-84
2023/08/21 07:56:07;;;;;;;5.43;2.13;;;25.30;99.90;;;-144.05;52.46;57063.34;6164143;23;20017;-85
2023/08/21 07:58:33;;;;;;;8.07;2.05;;;23.70;99.90;;;-144.05;52.60;57090.97;6190905;23;20091;-85
2023/08/21 08:01:01;;;;;;;8.98;2.50;;;21.60;99.90;;;-144.05;53.08;57042.13;6163593;23;20021;-85
2023/08/21 08:03:27;;;;;;;7.03;3.00;;;23.60;99.90;;;-144.05;52.41;57067.59;6164684;23;20008;-84
2023/08/21 08:05:53;;;;;;;7.13;2.58;;;;;;;-144.05;53.69;57065.47;6165007;23;20063;-85
2023/08/21 08:08:19;;;;;;;8.00;2.50;;;;;;;-144.05;55.01;57052.75;6191986;23;20005;-87
2023/08/21 08:10:45;;;;;;;9.95;2.72;;;23.00;99.90;;;-144.05;54.43;57054.88;6165286;23;20011;-87
2023/08/21 08:13:11;;;;;;;7.18;2.50;;;24.80;99.90;;;-144.05;54.48;57044.25;6165417;23;20041;-85
2023/08/21 08:15:38;;;;;;;7.53;2.50;;;;;;;-144.05;54.20;57080.34;6196899;23;19997;-81
2023/08/21 08:18:07;;;;;;;8.55;2.88;;;23.30;99.90;;;-144.05;54.22;57080.34;6208312;23;20015;-85
2023/08/21 08:20:33;;;;;;;10.50;3.25;;;25.60;99.90;;;-144.05;51.98;57069.72;6164666;23;20013;-83
2023/08/21 08:22:59;;;;;;;8.90;2.75;;;22.30;99.90;;;-144.05;51.35;57073.97;6164280;23;20036;-86
2023/08/21 08:25:27;;;;;;;4.35;2.35;;;;;;;-144.05;51.47;57095.22;6163464;23;20005;-85
2023/08/21 08:27:53;;;;;;;6.38;3.30;;;24.10;99.90;;;-144.05;50.85;57067.59;6190613;23;20005;-87
2023/08/21 08:30:19;;;;;;;6.45;2.85;;;25.40;99.90;;;-144.05;49.56;57073.97;6190399;23;20013;-86
2023/08/21 08:32:45;;;;;;;5.28;2.30;;;22.60;99.90;;;-144.05;50.00;57082.47;6192492;23;20336;-84
2023/08/21 08:35:14;;;;;;;5.22;2.63;;;24.60;99.90;;;-144.05;49.11;57095.22;6166833;23;20043;-85
2023/08/21 08:37:43;;;;;;;5.30;2.83;;;24.90;99.90;;;-144.05;47.00;57080.34;6168557;23;20013;-84
2023/08/21 08:40:11;;;;;;;6.20;2.75;;;24.80;99.90;;;-144.05;46.60;57105.84;6194420;23;20001;-84
2023/08/21 08:42:39;;;;;;;8.13;2.15;;;25.20;99.90;;;-144.05;46.81;57120.72;6193239;23;20040;-83
2023/08/21 08:45:07;;;;;;;5.00;2.17;;;;;;;-144.05;46.34;57127.09;6194345;23;20424;-84
2023/08/21 08:47:34;;;;;;;5.00;1.85;;;26.90;99.90;;;-144.05;45.95;57129.22;6167329;23;20059;-85
2023/08/21 08:50:08;;;;;;;8.95;2.80;;;23.70;99.90;;;-144.05;45.46;57112.22;6167524;23;20031;-85
2023/08/21 08:52:39;;;;;;;7.72;2.67;;;27.80;99.90;;;-144.05;45.49;57137.69;6167580;23;20081;-85
2023/08/21 08:55:07;;;;;;;6.07;2.30;;;25.90;99.90;;;-144.05;44.63;57146.19;6166459;23;20059;-84
2023/08/21 08:57:34;;;;;;;6.93;2.75;;;26.20;99.90;;;-144.05;45.22;57141.94;6166193;23;20439;-87
2023/08/21 09:00:01;;;;;;;6.07;2.25;;;27.30;99.90;;;-144.05;44.86;57188.69;6191816;23;20009;-83
2023/08/21 09:02:27;;;;;;;7.93;2.95;;;27.70;99.90;;;-144.05;44.18;57148.31;6191646;23;20015;-85
2023/08/21 09:04:54;;;;;;;8.63;2.50;;;27.80;99.90;;;-144.05;43.88;57154.69;6166677;23;20402;-86
2023/08/21 09:07:20;;;;;;;8.73;2.08;;;28.10;99.90;;;-144.05;43.92;57158.94;6192726;23;20009;-87
2023/08/21 09:09:50;;;;;;;8.85;2.58;;;26.60;99.90;;;-144.05;42.32;57161.06;6165959;23;20009;-86
2023/08/21 09:12:18;;;;;;;6.95;2.15;;;26.90;99.90;;;-144.05;41.77;57178.06;6165089;23;20024;-84
2023/08/21 09:14:46;;;;;;;8.75;2.30;;;26.90;99.90;;;-144.05;39.98;57188.69;6165253;23;20001;-86
2023/08/21 09:17:13;;;;;;;5.53;2.35;;;27.30;99.90;;;-144.05;40.26;57197.19;6191437;23;20012;-85
2023/08/21 09:19:39;;;;;;;4.75;2.17;;;25.50;99.90;;;-144.05;40.27;57197.19;6165439;23;20016;-84
2023/08/21 09:22:20;;;;;;;4.18;1.90;;;25.40;99.90;;;-144.05;39.84;57214.16;6165560;23;20013;-85
2023/08/21 09:25:08;;;;;;;6.38;2.00;;;28.50;99.90;;;-144.05;40.36;57205.66;6166037;23;20009;-86
2023/08/21 09:27:38;;;;;;;3.80;1.70;;;29.30;99.90;;;-144.05;40.25;57203.56;6165205;23;20063;-84
2023/08/21 09:30:15;;;;;;;4.82;2.00;;;29.00;99.90;;;-144.05;40.01;57216.28;6167667;23;20024;-83
2023/08/21 09:33:00;;;;;;;5.18;1.73;;;28.40;99.90;;;-144.05;40.32;57218.41;6166401;23;20009;-84
2023/08/21 09:35:27;;;;;;;4.07;2.17;;;25.50;99.90;;;-144.05;40.63;57226.91;6166823;23;20009;-85
2023/08/21 09:37:53;;;;;;;6.75;2.15;;;29.00;99.90;;;-144.05;39.84;57248.16;6168890;23;20009;-84
2023/08/21 09:40:21;;;;;;;7.05;2.25;;;28.90;99.90;;;-144.05;39.24;57192.94;6195803;23;20009;-84
2023/08/21 09:42:59;;;;;;;5.38;2.00;;;28.70;99.90;;;-144.05;39.82;57209.91;6196012;23;20008;-86
2023/08/21 09:45:29;;;;;;;7.82;2.33;;;27.60;99.90;;;-144.05;40.02;57201.44;6194465;23;20071;-86
2023/08/21 09:47:58;;;;;;;6.20;2.05;;;27.60;99.90;;;-144.05;38.40;57216.28;6167067;23;20444;-84
2023/08/21 09:50:25;;;;;;;6.03;2.00;;;27.80;99.90;;;-144.05;37.49;57243.91;6167261;23;20020;-85
2023/08/21 09:52:53;;;;;;;4.97;2.15;;;27.90;99.90;;;-144.05;38.62;57246.03;6166924;23;20012;-87
2023/08/21 09:55:21;;;;;;;7.78;1.77;;;28.10;99.90;;;-144.05;38.62;57248.16;6167305;23;20005;-86
2023/08/21 09:57:58;;;;;;;4.32;1.70;;;28.40;99.90;;;-144.05;38.23;57237.53;6168158;23;20052;-86
2023/08/21 10:00:31;;;;;;;6.55;2.53;;;28.40;99.90;;;-144.05;37.99;57237.53;6167431;23;20035;-85
2023/08/21 10:03:04;;;;;;;5.28;2.47;;;28.40;99.90;;;-144.05;38.33;57233.28;6167605;23;20009;-87
2023/08/21 10:05:33;;;;;;;8.25;2.10;;;30.20;99.90;;;-144.05;37.66;57239.66;6194756;23;20021;-85
2023/08/21 10:08:06;;;;;;;7.78;1.90;;;27.90;99.90;;;-144.05;37.89;57218.41;6166662;23;20036;-86
2023/08/21 10:10:38;;;;;;;4.82;1.70;;;28.40;99.90;;;-144.05;38.27;57248.16;6171287;23;20009;-85
2023/08/21 10:13:08;;;;;;;7.22;2.13;;;30.20;99.90;;;-144.05;37.76;57282.16;6172733;23;20012;-82
2023/08/21 10:15:38;;;;;;;8.27;2.65;;;28.90;99.90;;;-144.05;36.90;57265.16;6183044;23;19993;-84
2023/08/21 10:18:31;;;;;;;7.22;2.20;;;30.10;99.90;;;-144.05;36.99;57271.53;6169328;23;20005;-83
2023/08/21 10:21:11;;;;;;;7.88;2.47;;;28.90;99.90;;;-144.05;35.83;57280.03;6169050;23;20014;-86